createdAt,value
2019-03-29T00:00:07.295Z,21.70
2019-03-29T00:01:07.237Z,21.40
2019-03-29T00:02:07.147Z,22.50
2019-03-29T00:03:07.047Z,22.20
2019-03-29T00:04:06.970Z,23.30
2019-03-29T00:05:06.887Z,22.50
2019-03-29T00:06:06.797Z,21.10
2019-03-29T00:07:06.720Z,23.40
2019-03-29T00:08:06.637Z,22.40
2019-03-29T00:09:06.559Z,22.90
2019-03-29T00:10:06.471Z,21.30
2019-03-29T00:11:06.389Z,23.10
2019-03-29T00:12:06.321Z,22.00
2019-03-29T00:13:06.221Z,23.20
2019-03-29T00:14:06.137Z,21.70
2019-03-29T00:15:06.060Z,21.80
2019-03-29T00:16:05.977Z,22.60
2019-03-29T00:17:05.889Z,22.00
2019-03-29T00:18:05.813Z,21.20
2019-03-29T00:19:05.722Z,22.90
2019-03-29T00:20:06.308Z,21.70
2019-03-29T00:21:05.561Z,22.90
2019-03-29T00:22:05.474Z,22.10
2019-03-29T00:23:05.397Z,23.30
2019-03-29T00:24:07.073Z,23.30
2019-03-29T00:25:05.222Z,23.00
2019-03-29T00:26:05.148Z,23.70
2019-03-29T00:27:05.069Z,23.60
2019-03-29T00:28:04.973Z,22.90
2019-03-29T00:29:04.901Z,23.60
2019-03-29T00:30:04.811Z,24.10
2019-03-29T00:31:04.724Z,23.00
2019-03-29T00:32:05.916Z,23.20
2019-03-29T00:33:04.561Z,22.90
2019-03-29T00:34:04.487Z,22.80
2019-03-29T00:35:04.399Z,23.60
2019-03-29T00:36:04.312Z,23.40
2019-03-29T00:37:04.225Z,23.80
2019-03-29T00:38:04.150Z,23.60
2019-03-29T00:39:04.062Z,24.20
2019-03-29T00:40:03.988Z,24.70
2019-03-29T00:41:03.899Z,24.20
2019-03-29T00:42:03.812Z,24.60
2019-03-29T00:43:03.741Z,23.10
2019-03-29T00:44:03.650Z,24.90
2019-03-29T00:45:03.563Z,23.10
2019-03-29T00:46:03.487Z,23.90
2019-03-29T00:47:04.047Z,23.90
2019-03-29T00:48:03.313Z,23.70
2019-03-29T00:49:03.239Z,23.70
2019-03-29T00:50:03.151Z,24.50
2019-03-29T00:51:03.070Z,23.50
2019-03-29T00:52:02.989Z,23.60
2019-03-29T00:53:02.902Z,22.60
2019-03-29T00:54:02.826Z,22.70
2019-03-29T00:55:02.739Z,23.70
2019-03-29T00:56:02.651Z,22.80
2019-03-29T00:57:02.576Z,24.00
2019-03-29T00:58:02.489Z,25.40
2019-03-29T00:59:02.403Z,23.80
2019-03-29T01:00:02.328Z,23.60
2019-03-29T01:01:02.245Z,23.40
2019-03-29T01:02:02.152Z,22.00
2019-03-29T01:03:02.076Z,23.10
2019-03-29T01:04:02.920Z,23.70
2019-03-29T01:05:01.903Z,24.50
2019-03-29T01:06:01.827Z,23.90
2019-03-29T01:07:01.739Z,25.10
2019-03-29T01:08:07.714Z,24.90
2019-03-29T01:09:01.579Z,25.00
2019-03-29T01:10:01.494Z,23.90
2019-03-29T01:11:01.404Z,24.00
2019-03-29T01:12:01.328Z,23.30
2019-03-29T01:13:01.243Z,23.50
2019-03-29T01:14:01.168Z,23.00
2019-03-29T01:15:01.080Z,24.30
2019-03-29T01:16:01.172Z,22.90
2019-03-29T01:17:00.908Z,22.90
2019-03-29T01:18:00.828Z,22.80
2019-03-29T01:19:00.742Z,22.30
2019-03-29T01:20:00.657Z,23.70
2019-03-29T01:21:00.579Z,22.30
2019-03-29T01:22:00.494Z,21.40
2019-03-29T01:23:00.417Z,23.80
2019-03-29T01:24:00.329Z,20.40
2019-03-29T01:25:00.408Z,21.10
2019-03-29T01:26:01.026Z,20.40
2019-03-29T01:27:00.095Z,20.80
2019-03-29T01:27:59.993Z,21.50
2019-03-29T01:28:59.918Z,21.40
2019-03-29T01:29:59.846Z,21.90
2019-03-29T01:30:59.745Z,22.30
2019-03-29T01:31:59.667Z,23.20
2019-03-29T01:32:59.581Z,21.00
2019-03-29T01:33:59.505Z,22.50
2019-03-29T01:34:59.419Z,22.30
2019-03-29T01:35:59.344Z,22.50
2019-03-29T01:36:59.244Z,23.10
2019-03-29T01:37:59.169Z,22.10
2019-03-29T01:38:59.081Z,23.10
2019-03-29T01:39:58.994Z,21.30
2019-03-29T01:40:58.920Z,21.80
2019-03-29T01:41:58.832Z,22.20
2019-03-29T01:42:58.749Z,21.20
2019-03-29T01:43:58.670Z,21.50
2019-03-29T01:44:58.582Z,20.70
2019-03-29T01:45:58.508Z,21.50
2019-03-29T01:46:58.423Z,20.60
2019-03-29T01:47:58.333Z,21.60
2019-03-29T01:48:58.245Z,21.20
2019-03-29T01:49:58.173Z,21.90
2019-03-29T01:50:58.129Z,21.70
2019-03-29T01:51:57.996Z,21.50
2019-03-29T01:52:57.921Z,21.20
2019-03-29T01:53:57.832Z,21.40
2019-03-29T01:54:57.746Z,22.00
2019-03-29T01:55:57.672Z,22.00
2019-03-29T01:56:57.599Z,19.90
2019-03-29T01:57:58.310Z,21.90
2019-03-29T01:58:57.424Z,23.60
2019-03-29T01:59:57.333Z,22.20
2019-03-29T02:00:57.247Z,21.80
2019-03-29T02:01:57.173Z,22.80
2019-03-29T02:02:57.084Z,22.30
2019-03-29T02:03:56.998Z,22.70
2019-03-29T02:04:56.923Z,23.80
2019-03-29T02:05:56.835Z,21.80
2019-03-29T02:06:56.749Z,22.90
2019-03-29T02:07:56.675Z,23.70
2019-03-29T02:08:56.588Z,22.80
2019-03-29T02:09:56.901Z,22.80
2019-03-29T02:10:56.423Z,21.80
2019-03-29T02:11:56.334Z,23.20
2019-03-29T02:12:56.252Z,22.80
2019-03-29T02:13:56.176Z,23.40
2019-03-29T02:14:56.086Z,22.60
2019-03-29T02:15:55.999Z,23.40
2019-03-29T02:16:56.052Z,23.20
2019-03-29T02:17:55.835Z,25.00
2019-03-29T02:18:55.749Z,23.20
2019-03-29T02:19:55.675Z,25.50
2019-03-29T02:20:55.586Z,26.50
2019-03-29T02:21:55.510Z,28.00
2019-03-29T02:22:55.424Z,26.10
2019-03-29T02:23:55.451Z,26.20
2019-03-29T02:24:55.275Z,26.30
2019-03-29T02:25:55.176Z,27.30
2019-03-29T02:26:55.087Z,25.10
2019-03-29T02:27:55.012Z,27.10
2019-03-29T02:28:54.925Z,26.70
2019-03-29T02:29:54.840Z,26.70
2019-03-29T02:30:54.774Z,27.00
2019-03-29T02:31:56.355Z,26.20
2019-03-29T02:32:54.590Z,27.00
2019-03-29T02:33:54.513Z,27.50
2019-03-29T02:34:54.428Z,27.30
2019-03-29T02:35:54.338Z,29.50
2019-03-29T02:36:54.264Z,29.60
2019-03-29T02:37:54.267Z,29.30
2019-03-29T02:38:55.987Z,30.60
2019-03-29T02:39:54.907Z,29.20
2019-03-29T02:40:53.932Z,30.00
2019-03-29T02:41:53.841Z,30.90
2019-03-29T02:42:53.763Z,29.80
2019-03-29T02:43:53.676Z,30.20
2019-03-29T02:44:53.603Z,32.20
2019-03-29T02:45:53.514Z,33.00
2019-03-29T02:46:53.861Z,30.80
2019-03-29T02:47:53.354Z,29.70
2019-03-29T02:48:53.264Z,31.60
2019-03-29T02:49:53.189Z,32.70
2019-03-29T02:50:53.106Z,29.80
2019-03-29T02:51:53.025Z,29.20
2019-03-29T02:52:52.939Z,32.40
2019-03-29T02:53:52.854Z,32.90
2019-03-29T02:54:52.765Z,32.50
2019-03-29T02:55:52.685Z,32.30
2019-03-29T02:56:52.605Z,32.10
2019-03-29T02:57:52.518Z,32.20
2019-03-29T02:58:52.442Z,32.50
2019-03-29T02:59:52.355Z,33.30
2019-03-29T03:00:52.267Z,34.40
2019-03-29T03:01:52.190Z,33.40
2019-03-29T03:02:52.105Z,32.70
2019-03-29T03:03:52.017Z,33.80
2019-03-29T03:04:51.946Z,31.70
2019-03-29T03:05:51.856Z,32.80
2019-03-29T03:06:51.769Z,32.10
2019-03-29T03:07:51.693Z,33.60
2019-03-29T03:08:51.604Z,34.30
2019-03-29T03:09:51.518Z,34.50
2019-03-29T03:10:51.443Z,35.20
2019-03-29T03:11:51.359Z,33.80
2019-03-29T03:12:51.281Z,34.80
2019-03-29T03:13:51.197Z,34.90
2019-03-29T03:14:51.105Z,35.00
2019-03-29T03:15:51.020Z,35.50
2019-03-29T03:16:50.942Z,34.00
2019-03-29T03:17:50.867Z,34.00
2019-03-29T03:18:50.789Z,34.80
2019-03-29T03:19:50.696Z,34.60
2019-03-29T03:20:50.648Z,33.50
2019-03-29T03:21:50.533Z,34.50
2019-03-29T03:22:50.443Z,33.40
2019-03-29T03:23:50.375Z,34.80
2019-03-29T03:24:50.286Z,34.00
2019-03-29T03:25:50.195Z,34.80
2019-03-29T03:26:50.108Z,35.50
2019-03-29T03:27:50.039Z,34.80
2019-03-29T03:28:49.952Z,33.00
2019-03-29T03:29:49.858Z,33.00
2019-03-29T03:30:49.871Z,33.60
2019-03-29T03:31:49.695Z,34.40
2019-03-29T03:32:49.636Z,35.40
2019-03-29T03:33:49.536Z,33.80
2019-03-29T03:34:49.445Z,36.60
2019-03-29T03:35:49.371Z,33.30
2019-03-29T03:36:49.284Z,36.40
2019-03-29T03:37:49.196Z,33.30
2019-03-29T03:38:49.126Z,34.40
2019-03-29T03:39:49.037Z,34.50
2019-03-29T03:40:48.959Z,33.70
2019-03-29T03:41:48.872Z,33.70
2019-03-29T03:42:48.789Z,35.20
2019-03-29T03:43:48.701Z,35.70
2019-03-29T03:44:48.622Z,34.90
2019-03-29T03:45:48.539Z,36.10
2019-03-29T03:46:48.460Z,34.40
2019-03-29T03:47:48.371Z,35.20
2019-03-29T03:48:48.284Z,33.90
2019-03-29T03:49:48.198Z,34.90
2019-03-29T03:50:48.122Z,37.20
2019-03-29T03:51:48.036Z,34.50
2019-03-29T03:52:47.960Z,33.70
2019-03-29T03:53:47.872Z,35.50
2019-03-29T03:54:47.785Z,37.40
2019-03-29T03:55:47.718Z,36.60
2019-03-29T03:56:47.624Z,36.10
2019-03-29T03:57:47.541Z,35.30
2019-03-29T03:58:47.463Z,37.50
2019-03-29T03:59:47.373Z,36.00
2019-03-29T04:00:47.286Z,34.50
2019-03-29T04:01:47.213Z,35.20
2019-03-29T04:02:47.126Z,35.10
2019-03-29T04:03:47.037Z,35.80
2019-03-29T04:04:46.969Z,36.40
2019-03-29T04:05:46.877Z,35.00
2019-03-29T04:06:46.799Z,36.10
2019-03-29T04:07:46.713Z,34.20
2019-03-29T04:08:46.625Z,34.70
2019-03-29T04:09:49.946Z,36.20
2019-03-29T04:10:46.462Z,34.50
2019-03-29T04:11:46.433Z,35.60
2019-03-29T04:12:46.298Z,36.40
2019-03-29T04:13:46.214Z,35.80
2019-03-29T04:14:46.133Z,35.00
2019-03-29T04:15:46.065Z,36.00
2019-03-29T04:16:45.963Z,35.80
2019-03-29T04:17:45.887Z,34.40
2019-03-29T04:18:45.806Z,36.30
2019-03-29T04:19:45.712Z,36.60
2019-03-29T04:20:45.627Z,36.50
2019-03-29T04:21:45.554Z,34.00
2019-03-29T04:22:45.469Z,34.70
2019-03-29T04:23:45.379Z,36.10
2019-03-29T04:24:45.303Z,35.60
2019-03-29T04:25:45.220Z,35.10
2019-03-29T04:26:45.141Z,36.40
2019-03-29T04:27:45.056Z,33.40
2019-03-29T04:28:44.965Z,34.10
2019-03-29T04:29:44.889Z,35.50
2019-03-29T04:30:44.805Z,36.70
2019-03-29T04:31:44.715Z,35.10
2019-03-29T04:32:44.645Z,37.80
2019-03-29T04:33:44.554Z,35.50
2019-03-29T04:34:44.531Z,34.70
2019-03-29T04:35:44.390Z,36.80
2019-03-29T04:36:44.302Z,35.10
2019-03-29T04:37:44.216Z,35.50
2019-03-29T04:38:44.141Z,35.70
2019-03-29T04:39:44.053Z,35.00
2019-03-29T04:40:43.965Z,34.50
2019-03-29T04:41:43.891Z,36.30
2019-03-29T04:42:43.803Z,35.90
2019-03-29T04:43:43.729Z,36.90
2019-03-29T04:44:43.640Z,36.20
2019-03-29T04:45:43.557Z,36.70
2019-03-29T04:46:43.478Z,35.10
2019-03-29T04:47:43.391Z,34.10
2019-03-29T04:48:43.304Z,35.10
2019-03-29T04:49:43.230Z,37.00
2019-03-29T04:50:43.141Z,35.40
2019-03-29T04:51:43.053Z,36.20
2019-03-29T04:52:42.992Z,36.20
2019-03-29T04:53:42.891Z,35.80
2019-03-29T04:54:42.804Z,35.50
2019-03-29T04:55:42.729Z,35.00
2019-03-29T04:56:42.643Z,37.10
2019-03-29T04:57:42.556Z,35.80
2019-03-29T04:58:42.492Z,34.70
2019-03-29T04:59:42.393Z,35.40
2019-03-29T05:00:42.316Z,36.30
2019-03-29T05:01:42.229Z,36.10
2019-03-29T05:02:42.143Z,36.50
2019-03-29T05:03:42.066Z,37.00
2019-03-29T05:04:41.984Z,36.00
2019-03-29T05:05:41.896Z,37.60
2019-03-29T05:06:41.820Z,36.00
2019-03-29T05:07:41.730Z,36.40
2019-03-29T05:08:41.643Z,36.80
2019-03-29T05:09:41.568Z,34.30
2019-03-29T05:10:41.484Z,36.00
2019-03-29T05:11:41.393Z,37.50
2019-03-29T05:12:41.324Z,35.20
2019-03-29T05:13:41.230Z,36.20
2019-03-29T05:14:41.144Z,36.80
2019-03-29T05:15:41.068Z,36.20
2019-03-29T05:16:40.995Z,35.80
2019-03-29T05:17:40.977Z,36.40
2019-03-29T05:18:40.821Z,34.20
2019-03-29T05:19:40.731Z,36.30
2019-03-29T05:20:40.657Z,37.90
2019-03-29T05:21:40.570Z,35.20
2019-03-29T05:22:40.481Z,35.30
2019-03-29T05:23:40.405Z,36.10
2019-03-29T05:24:40.320Z,36.90
2019-03-29T05:25:40.231Z,37.60
2019-03-29T05:26:40.156Z,37.50
2019-03-29T05:27:40.070Z,35.50
2019-03-29T05:28:39.982Z,35.90
2019-03-29T05:29:39.909Z,38.70
2019-03-29T05:30:39.820Z,37.00
2019-03-29T05:31:39.733Z,36.30
2019-03-29T05:32:39.657Z,36.00
2019-03-29T05:33:39.582Z,35.80
2019-03-29T05:34:39.495Z,37.30
2019-03-29T05:35:39.409Z,36.70
2019-03-29T05:36:39.322Z,36.10
2019-03-29T05:37:39.246Z,37.10
2019-03-29T05:38:39.162Z,38.20
2019-03-29T05:39:39.072Z,36.70
2019-03-29T05:40:38.996Z,37.70
2019-03-29T05:41:38.911Z,36.70
2019-03-29T05:42:38.822Z,37.30
2019-03-29T05:43:38.747Z,35.90
2019-03-29T05:44:40.834Z,36.50
2019-03-29T05:45:38.586Z,38.40
2019-03-29T05:46:38.502Z,36.60
2019-03-29T05:47:38.416Z,36.00
2019-03-29T05:48:38.335Z,36.90
2019-03-29T05:49:38.247Z,36.10
2019-03-29T05:50:38.173Z,37.50
2019-03-29T05:51:38.089Z,37.20
2019-03-29T05:52:38.000Z,36.60
2019-03-29T05:53:37.911Z,36.30
2019-03-29T05:54:37.835Z,37.30
2019-03-29T05:55:37.751Z,36.90
2019-03-29T05:56:37.673Z,36.60
2019-03-29T05:57:37.586Z,37.40
2019-03-29T05:58:37.502Z,35.70
2019-03-29T05:59:37.424Z,36.90
2019-03-29T06:00:37.339Z,36.40
2019-03-29T06:01:37.268Z,36.30
2019-03-29T06:02:37.189Z,36.50
2019-03-29T06:03:37.098Z,37.10
2019-03-29T06:04:37.011Z,37.30
2019-03-29T06:05:36.927Z,37.30
2019-03-29T06:06:36.843Z,35.90
2019-03-29T06:07:36.761Z,36.30
2019-03-29T06:08:36.675Z,36.10
2019-03-29T06:09:36.588Z,35.70
2019-03-29T06:10:48.363Z,37.60
2019-03-29T06:11:36.501Z,37.10
2019-03-29T06:12:36.352Z,36.10
2019-03-29T06:13:36.264Z,36.70
2019-03-29T06:14:36.180Z,36.00
2019-03-29T06:15:36.100Z,36.10
2019-03-29T06:16:39.182Z,37.00
2019-03-29T06:17:47.894Z,35.80
2019-03-29T06:18:35.850Z,36.40
2019-03-29T06:19:35.762Z,36.80
2019-03-29T06:20:35.688Z,35.40
2019-03-29T06:21:35.606Z,35.40
2019-03-29T06:22:35.514Z,35.60
2019-03-29T06:23:35.439Z,35.60
2019-03-29T06:24:35.351Z,35.20
2019-03-29T06:25:35.277Z,36.10
2019-03-29T06:26:35.188Z,35.10
2019-03-29T06:27:35.101Z,35.60
2019-03-29T06:28:35.027Z,35.80
2019-03-29T06:29:34.939Z,37.40
2019-03-29T06:30:34.865Z,35.20
2019-03-29T06:31:34.781Z,35.20
2019-03-29T06:32:34.689Z,35.50
2019-03-29T06:33:34.617Z,34.80
2019-03-29T06:34:34.542Z,35.00
2019-03-29T06:35:34.440Z,33.80
2019-03-29T06:36:34.368Z,34.90
2019-03-29T06:37:34.278Z,34.70
2019-03-29T06:38:34.203Z,34.70
2019-03-29T06:39:34.114Z,35.80
2019-03-29T06:40:34.029Z,35.40
2019-03-29T06:41:33.953Z,35.20
2019-03-29T06:42:33.870Z,34.50
2019-03-29T06:43:33.790Z,34.30
2019-03-29T06:44:33.703Z,34.00
2019-03-29T06:45:46.819Z,33.80
2019-03-29T06:46:33.540Z,35.10
2019-03-29T06:47:33.455Z,33.70
2019-03-29T06:48:33.379Z,34.70
2019-03-29T06:49:33.291Z,34.20
2019-03-29T06:50:33.252Z,32.50
2019-03-29T06:51:33.133Z,33.40
2019-03-29T06:52:33.041Z,33.70
2019-03-29T06:53:32.966Z,33.40
2019-03-29T06:54:32.880Z,32.70
2019-03-29T06:55:32.791Z,33.60
2019-03-29T06:56:32.719Z,32.60
2019-03-29T06:57:32.630Z,33.00
2019-03-29T06:58:32.557Z,32.50
2019-03-29T06:59:32.481Z,32.00
2019-03-29T07:00:32.385Z,33.00
2019-03-29T07:01:32.306Z,32.50
2019-03-29T07:02:32.232Z,32.60
2019-03-29T07:03:32.142Z,32.30
2019-03-29T07:04:32.060Z,32.40
2019-03-29T07:05:31.973Z,31.90
2019-03-29T07:06:31.892Z,31.20
2019-03-29T07:07:31.806Z,31.60
2019-03-29T07:08:31.731Z,32.20
2019-03-29T07:09:31.644Z,31.30
2019-03-29T07:10:31.573Z,30.60
2019-03-29T07:11:31.482Z,29.30
2019-03-29T07:12:31.398Z,30.40
2019-03-29T07:13:31.318Z,31.30
2019-03-29T07:14:31.232Z,30.90
2019-03-29T07:15:31.160Z,29.90
2019-03-29T07:16:31.069Z,30.70
2019-03-29T07:17:30.982Z,29.80
2019-03-29T07:18:30.906Z,30.00
2019-03-29T07:19:30.820Z,30.00
2019-03-29T07:20:30.745Z,31.20
2019-03-29T07:21:30.658Z,28.50
2019-03-29T07:22:30.582Z,30.20
2019-03-29T07:23:30.495Z,30.50
2019-03-29T07:24:30.408Z,28.40
2019-03-29T07:25:30.333Z,28.80
2019-03-29T07:26:30.246Z,29.20
2019-03-29T07:27:38.759Z,28.40
2019-03-29T07:28:30.083Z,29.00
2019-03-29T07:29:30.008Z,28.60
2019-03-29T07:30:29.920Z,29.00
2019-03-29T07:31:29.837Z,28.80
2019-03-29T07:32:29.759Z,28.60
2019-03-29T07:33:29.671Z,28.70
2019-03-29T07:34:29.597Z,27.20
2019-03-29T07:35:29.510Z,27.50
2019-03-29T07:36:29.421Z,27.80
2019-03-29T07:37:29.348Z,27.90
2019-03-29T07:38:29.260Z,28.00
2019-03-29T07:39:29.186Z,28.00
2019-03-29T07:40:29.102Z,28.40
2019-03-29T07:41:32.301Z,27.70
2019-03-29T07:42:28.938Z,26.40
2019-03-29T07:43:28.853Z,27.30
2019-03-29T07:44:28.773Z,26.90
2019-03-29T07:45:28.698Z,27.10
2019-03-29T07:46:28.612Z,26.30
2019-03-29T07:47:28.523Z,26.10
2019-03-29T07:48:28.438Z,26.30
2019-03-29T07:49:28.361Z,25.90
2019-03-29T07:50:28.272Z,27.00
2019-03-29T07:51:28.198Z,26.70
2019-03-29T07:52:28.112Z,26.60
2019-03-29T07:53:28.037Z,25.70
2019-03-29T07:54:27.952Z,25.90
2019-03-29T07:55:27.862Z,27.30
2019-03-29T07:56:27.786Z,26.30
2019-03-29T07:57:27.699Z,24.80
2019-03-29T07:58:27.636Z,25.20
2019-03-29T07:59:27.539Z,25.30
2019-03-29T08:00:27.461Z,24.00
2019-03-29T08:01:27.374Z,24.50
2019-03-29T08:02:28.194Z,24.20
2019-03-29T08:03:27.214Z,25.20
2019-03-29T08:04:27.124Z,25.70
2019-03-29T08:05:27.049Z,25.50
2019-03-29T08:06:26.963Z,25.10
2019-03-29T08:07:27.756Z,24.50
2019-03-29T08:08:32.077Z,25.10
2019-03-29T08:09:27.376Z,23.70
2019-03-29T08:10:30.993Z,24.30
2019-03-29T08:11:27.651Z,24.70
2019-03-29T08:12:26.532Z,24.00
2019-03-29T08:13:26.390Z,24.00
2019-03-29T08:14:26.315Z,24.10
2019-03-29T08:15:26.225Z,24.90
2019-03-29T08:16:26.151Z,25.10
2019-03-29T08:17:26.064Z,24.20
2019-03-29T08:18:25.977Z,23.10
2019-03-29T08:19:25.901Z,23.00
2019-03-29T08:20:40.312Z,24.10
2019-03-29T08:21:25.740Z,23.70
2019-03-29T08:22:25.651Z,22.60
2019-03-29T08:23:28.646Z,24.20
2019-03-29T08:24:25.489Z,22.80
2019-03-29T08:25:25.415Z,23.20
2019-03-29T08:26:25.404Z,23.00
2019-03-29T08:27:25.240Z,23.70
2019-03-29T08:28:25.165Z,23.30
2019-03-29T08:29:25.079Z,24.60
2019-03-29T08:30:25.003Z,23.30
2019-03-29T08:31:24.916Z,24.30
2019-03-29T08:32:24.829Z,23.20
2019-03-29T08:33:24.753Z,22.80
2019-03-29T08:34:24.678Z,23.20
2019-03-29T08:35:24.591Z,23.10
2019-03-29T08:36:24.505Z,22.00
2019-03-29T08:37:24.428Z,22.20
2019-03-29T08:38:24.341Z,23.10
2019-03-29T08:39:28.301Z,22.90
2019-03-29T08:40:24.184Z,23.00
2019-03-29T08:41:24.104Z,23.00
2019-03-29T08:42:24.018Z,21.70
2019-03-29T08:43:23.929Z,21.60
2019-03-29T08:44:23.854Z,23.00
2019-03-29T08:45:23.768Z,22.20
2019-03-29T08:46:23.693Z,22.80
2019-03-29T08:47:23.605Z,22.00
2019-03-29T08:48:23.530Z,22.50
2019-03-29T08:49:23.444Z,22.00
2019-03-29T08:50:23.368Z,21.80
2019-03-29T08:51:23.280Z,22.60
2019-03-29T08:52:23.197Z,22.20
2019-03-29T08:53:23.119Z,22.10
2019-03-29T08:54:23.031Z,22.70
2019-03-29T08:55:22.958Z,22.30
2019-03-29T08:56:22.868Z,20.90
2019-03-29T08:57:22.794Z,21.30
2019-03-29T08:58:22.706Z,21.00
2019-03-29T08:59:22.630Z,21.30
2019-03-29T09:00:22.547Z,21.10
2019-03-29T09:01:22.469Z,20.00
2019-03-29T09:02:24.899Z,19.50
2019-03-29T09:03:22.296Z,20.80
2019-03-29T09:04:22.219Z,19.80
2019-03-29T09:05:22.131Z,19.50
2019-03-29T09:06:22.069Z,19.40
2019-03-29T09:07:21.970Z,20.20
2019-03-29T09:08:21.898Z,20.30
2019-03-29T09:09:21.809Z,19.30
2019-03-29T09:10:21.732Z,20.40
2019-03-29T09:11:21.645Z,19.80
2019-03-29T09:12:21.570Z,20.90
2019-03-29T09:13:21.482Z,19.50
2019-03-29T09:14:21.407Z,19.80
2019-03-29T09:15:21.320Z,19.90
2019-03-29T09:16:21.238Z,19.10
2019-03-29T09:17:21.157Z,20.00
2019-03-29T09:18:21.071Z,18.90
2019-03-29T09:19:20.996Z,19.00
2019-03-29T09:20:20.908Z,18.90
2019-03-29T09:21:20.833Z,18.80
2019-03-29T09:22:20.746Z,17.10
2019-03-29T09:23:20.676Z,18.60
2019-03-29T09:24:22.389Z,17.50
2019-03-29T09:25:21.156Z,16.00
2019-03-29T09:26:20.422Z,16.70
2019-03-29T09:27:20.390Z,15.90
2019-03-29T09:28:20.259Z,16.00
2019-03-29T09:29:20.184Z,16.50
2019-03-29T09:30:20.104Z,16.10
2019-03-29T09:31:20.011Z,17.10
2019-03-29T09:32:19.948Z,15.60
2019-03-29T09:33:19.848Z,15.60
2019-03-29T09:34:19.780Z,15.70
2019-03-29T09:35:19.685Z,15.20
2019-03-29T09:36:19.611Z,16.20
2019-03-29T09:37:19.525Z,15.70
2019-03-29T09:38:19.449Z,15.20
2019-03-29T09:39:19.360Z,14.90
2019-03-29T09:40:19.290Z,14.60
2019-03-29T09:41:19.199Z,15.40
2019-03-29T09:42:28.759Z,15.60
2019-03-29T09:43:19.049Z,16.40
2019-03-29T09:44:18.960Z,14.40
2019-03-29T09:45:18.881Z,16.00
2019-03-29T09:46:18.799Z,15.50
2019-03-29T09:47:18.712Z,15.10
2019-03-29T09:48:18.649Z,15.40
2019-03-29T09:49:18.549Z,15.00
2019-03-29T09:50:18.475Z,14.70
2019-03-29T09:51:18.386Z,15.20
2019-03-29T09:52:18.312Z,15.20
2019-03-29T09:53:18.224Z,13.40
2019-03-29T09:54:20.439Z,14.10
2019-03-29T09:55:19.208Z,13.30
2019-03-29T09:56:17.987Z,13.80
2019-03-29T09:57:17.900Z,13.50
2019-03-29T09:58:17.826Z,13.00
2019-03-29T09:59:17.741Z,13.50
2019-03-29T10:00:22.755Z,13.20
2019-03-29T10:01:20.628Z,12.80
2019-03-29T10:02:17.502Z,12.90
2019-03-29T10:03:17.414Z,12.90
2019-03-29T10:04:17.338Z,12.60
2019-03-29T10:05:19.832Z,12.60
2019-03-29T10:06:17.176Z,11.80
2019-03-29T10:07:17.090Z,12.00
2019-03-29T10:08:17.018Z,12.30
2019-03-29T10:09:16.927Z,12.00
2019-03-29T10:10:16.852Z,12.00
2019-03-29T10:11:16.765Z,12.30
2019-03-29T10:12:16.689Z,11.70
2019-03-29T10:13:16.651Z,11.70
2019-03-29T10:14:16.527Z,10.90
2019-03-29T10:15:16.439Z,11.30
2019-03-29T10:16:16.366Z,11.00
2019-03-29T10:17:16.278Z,11.40
2019-03-29T10:18:16.202Z,11.10
2019-03-29T10:19:16.117Z,10.40
2019-03-29T10:20:16.040Z,10.60
2019-03-29T10:21:17.448Z,11.80
2019-03-29T10:22:15.880Z,11.50
2019-03-29T10:23:15.790Z,11.00
2019-03-29T10:24:15.717Z,10.10
2019-03-29T10:25:19.840Z,10.40
2019-03-29T10:26:15.554Z,9.60
2019-03-29T10:27:18.735Z,10.60
2019-03-29T10:28:15.390Z,10.00
2019-03-29T10:29:15.304Z,9.70
2019-03-29T10:30:15.228Z,9.60
2019-03-29T10:31:15.150Z,9.90
2019-03-29T10:32:15.067Z,8.70
2019-03-29T10:33:14.995Z,9.20
2019-03-29T10:34:14.904Z,9.30
2019-03-29T10:35:14.833Z,9.30
2019-03-29T10:36:14.741Z,8.00
2019-03-29T10:37:14.666Z,8.80
2019-03-29T10:38:17.808Z,8.40
2019-03-29T10:39:14.509Z,7.70
2019-03-29T10:40:14.430Z,7.40
2019-03-29T10:41:14.355Z,7.00
2019-03-29T10:42:14.270Z,7.90
2019-03-29T10:43:14.187Z,6.70
2019-03-29T10:44:14.109Z,5.90
2019-03-29T10:45:14.019Z,6.00
2019-03-29T10:46:13.956Z,5.50
2019-03-29T10:47:13.868Z,5.70
2019-03-29T10:48:13.784Z,6.20
2019-03-29T10:49:13.707Z,5.90
2019-03-29T10:50:13.643Z,6.40
2019-03-29T10:51:13.546Z,5.70
2019-03-29T10:52:13.474Z,6.40
2019-03-29T10:53:13.382Z,6.30
2019-03-29T10:54:13.309Z,5.70
2019-03-29T10:55:13.220Z,5.80
2019-03-29T10:56:13.143Z,6.20
2019-03-29T10:57:13.069Z,5.80
2019-03-29T10:58:12.985Z,5.90
2019-03-29T10:59:26.298Z,6.10
2019-03-29T11:00:12.821Z,6.10
2019-03-29T11:01:12.746Z,5.90
2019-03-29T11:02:12.671Z,4.20
2019-03-29T11:03:12.583Z,3.60
2019-03-29T11:04:12.508Z,3.70
2019-03-29T11:05:12.433Z,4.00
2019-03-29T11:06:12.345Z,3.00
2019-03-29T11:07:12.269Z,2.70
2019-03-29T11:08:12.437Z,3.00
2019-03-29T11:09:12.108Z,2.90
2019-03-29T11:10:12.034Z,2.60
2019-03-29T11:11:11.945Z,2.50
2019-03-29T11:12:11.872Z,2.60
2019-03-29T11:13:13.683Z,2.60
2019-03-29T11:14:11.711Z,2.20
2019-03-29T11:15:11.634Z,2.40
2019-03-29T11:16:11.549Z,2.20
2019-03-29T11:17:11.474Z,2.00
2019-03-29T11:18:11.396Z,2.30
2019-03-29T11:19:11.310Z,2.80
2019-03-29T11:20:11.234Z,2.50
2019-03-29T11:21:11.160Z,3.00
2019-03-29T11:22:11.085Z,3.10
2019-03-29T11:23:11.003Z,3.00
2019-03-29T11:24:10.915Z,3.20
2019-03-29T11:25:10.835Z,2.90
2019-03-29T11:26:10.766Z,3.00
2019-03-29T11:27:10.675Z,3.50
2019-03-29T11:28:10.600Z,3.40
2019-03-29T11:29:10.511Z,3.60
2019-03-29T11:30:10.436Z,3.10
2019-03-29T11:31:10.363Z,3.10
2019-03-29T11:32:10.273Z,3.40
2019-03-29T11:33:10.198Z,3.00
2019-03-29T11:34:10.123Z,3.10
2019-03-29T11:35:10.041Z,3.10
2019-03-29T11:36:09.964Z,3.10
2019-03-29T11:37:09.873Z,3.30
2019-03-29T11:38:09.801Z,3.20
2019-03-29T11:39:09.712Z,3.00
2019-03-29T11:40:09.648Z,3.30
2019-03-29T11:41:09.564Z,3.30
2019-03-29T11:42:09.473Z,3.20
2019-03-29T11:43:09.412Z,3.50
2019-03-29T11:44:09.313Z,3.20
2019-03-29T11:45:09.237Z,3.50
2019-03-29T11:46:09.152Z,3.00
2019-03-29T11:47:09.074Z,3.30
2019-03-29T11:48:09.717Z,3.30
2019-03-29T11:49:08.914Z,3.40
2019-03-29T11:50:08.841Z,3.40
2019-03-29T11:51:19.095Z,2.80
2019-03-29T11:52:08.674Z,3.40
2019-03-29T11:53:08.603Z,3.40
2019-03-29T11:54:08.513Z,3.70
2019-03-29T11:55:08.439Z,3.20
2019-03-29T11:56:08.351Z,3.10
2019-03-29T11:57:08.275Z,3.50
2019-03-29T11:58:08.200Z,3.30
2019-03-29T11:59:08.114Z,3.20
2019-03-29T12:00:08.039Z,3.10
2019-03-29T12:01:07.968Z,3.10
2019-03-29T12:02:07.876Z,3.70
2019-03-29T12:03:09.392Z,3.40
2019-03-29T12:04:07.714Z,3.20
2019-03-29T12:05:07.640Z,3.40
2019-03-29T12:06:07.566Z,3.30
2019-03-29T12:07:07.476Z,3.50
2019-03-29T12:08:07.400Z,3.70
2019-03-29T12:09:07.316Z,3.40
2019-03-29T12:10:07.240Z,3.70
2019-03-29T12:11:07.152Z,3.00
2019-03-29T12:12:07.077Z,3.20
2019-03-29T12:13:07.064Z,3.40
2019-03-29T12:14:06.917Z,3.20
2019-03-29T12:15:06.842Z,3.50
2019-03-29T12:16:06.752Z,3.20
2019-03-29T12:17:06.698Z,3.40
2019-03-29T12:18:06.602Z,3.40
2019-03-29T12:19:06.517Z,3.60
2019-03-29T12:20:06.442Z,2.80
2019-03-29T12:21:06.353Z,3.10
2019-03-29T12:22:06.280Z,3.40
2019-03-29T12:23:06.192Z,2.80
2019-03-29T12:24:06.120Z,2.70
2019-03-29T12:25:06.045Z,3.10
2019-03-29T12:26:05.953Z,3.00
2019-03-29T12:27:05.880Z,2.70
2019-03-29T12:28:05.793Z,2.60
2019-03-29T12:29:05.723Z,3.00
2019-03-29T12:30:05.693Z,3.10
2019-03-29T12:31:05.555Z,2.70
2019-03-29T12:32:05.479Z,2.70
2019-03-29T12:33:05.393Z,3.00
2019-03-29T12:34:05.319Z,3.00
2019-03-29T12:35:05.243Z,2.80
2019-03-29T12:36:05.156Z,2.80
2019-03-29T12:37:05.080Z,2.70
2019-03-29T12:38:04.994Z,3.10
2019-03-29T12:39:04.918Z,3.00
2019-03-29T12:40:04.844Z,3.20
2019-03-29T12:41:04.756Z,3.20
2019-03-29T12:42:04.684Z,3.30
2019-03-29T12:43:04.594Z,3.20
2019-03-29T12:44:04.523Z,3.40
2019-03-29T12:45:04.444Z,3.50
2019-03-29T12:46:04.355Z,3.40
2019-03-29T12:47:04.295Z,3.50
2019-03-29T12:48:04.194Z,3.60
2019-03-29T12:49:04.120Z,3.10
2019-03-29T12:50:04.033Z,3.20
2019-03-29T12:51:03.957Z,3.30
2019-03-29T12:52:03.894Z,3.30
2019-03-29T12:53:03.797Z,3.20
2019-03-29T12:54:03.720Z,3.40
2019-03-29T12:55:03.632Z,2.90
2019-03-29T12:56:03.557Z,3.50